Hauptseite
METAR-TAF:

METAR-TAF

Flughäfen :

Fliegerhorst Ingolstadt/Manching

Ingolstadt, Deutschland

Breite: 48-43N, Länge: 011-32E, Höhe: 367 m

Beobachtung

Neuester Wetterbericht von vor 56 Minuten, um 15:20 UTC
Wind 4 kt aus Nord/Nordost
Temperatur 6°C
Luftfeuchtigkeit 75%
Luftdruck 1021 hPa
Sichtweite 10 km oder mehr
Durchbrochene Bewölkung in der Höhe von 1600 ft
Durchbrochene Bewölkung in der Höhe von 2300 ft

METAR: ETSI 281520Z 03004KT 9999 BKN016 BKN023 06/02 Q1021 WHT WHT

Zeit: 17:16 (16:16 UTC)

Prognose

Neuester Wetterbericht von vor 2 Stunden und 8 Minuten, um 14:08 UTC
Gültige Prognose vom 28 um 15 UTC bis 28 um 24 UTC
Wind 2 kt aus Nord/Nordost
Sichtweite 10 km oder mehr
Leicht bewölkt in der Höhe von 1200 ft
Durchbrochene Bewölkung in der Höhe von 2000 ft

TAF: ETSI 281408Z 2815/2824 03002KT 9999 NSW FEW012 BKN020

Wetterbeobachtungen und Prognosen von mehr als 4000 Flughäfen (METAR und TAF Bericht).

Die verfügbaren Stationen werden durch gelbe und rote Markierungen auf der Karte dargestellt.

Führen Sie die Maus auf sie, um den Namen der Station zu sehen.

Darauf klicken, um die Beobachtung von Wetterbeobachtungen und Prognosen zu sehen.

Um die Karte zu ändern : klicken Sie auf den grünen Tasten mit einem schwarzen Kreuz Zum Vergrößern, auf den grünen Button mit einem Gedankenstrich zu verkleinern, oder auf die grünen Pfeile für benachbarte Karten.


METAR-TAF: